Time;durP1;ratioP1;P1;durP2;ratioP2;P2;SDS_P1;SDS_P2;PMS_P1;PMS_P2;Temp;Humidity;BMP_temperature;BMP_pressure;BME280_temperature;BME280_humidity;BME280_pressure;Samples;Min_cycle;Max_cycle;Signal;HPM_P1;HPM_P2
2022/08/02 00:00:36;;;;;;;;;;;;;;;20.05;61.16;98116.47;5050281;28;19916;-73
2022/08/02 00:06:01;;;;;;;;;;;;;;;20.06;61.24;98126.31;5041015;28;19995;-73
2022/08/02 00:08:29;;;;;;;;;;;;;;;19.94;61.35;98116.28;5044473;28;19971;-73
2022/08/02 00:10:57;;;;;;;;;;;;;;;19.78;62.05;98116.41;5051549;28;19920;-73
2022/08/02 00:13:25;;;;;;;;;;;;;;;19.71;62.39;98113.53;5034878;28;19923;-74
2022/08/02 00:15:55;;;;;;;;;;;;;;;19.68;62.67;98119.75;5044631;28;19923;-73
2022/08/02 00:18:23;;;;;;;;;;;;;;;19.49;63.66;98117.78;5045537;28;20396;-71
2022/08/02 00:20:53;;;;;;;;;;;;;;;19.42;64.03;98123.19;5050563;28;19920;-73
2022/08/02 00:23:48;;;;;;;;;;;;;;;19.45;63.48;98116.94;5033496;28;20388;-76
2022/08/02 00:26:39;;;;;;;;;;;;;;;19.54;63.10;98113.94;5046789;28;19927;-60
2022/08/02 00:29:07;;;;;;;;;;;;;;;19.34;63.98;98118.72;5029905;28;19917;-76
2022/08/02 00:31:35;;;;;;;;;;;;;;;19.19;64.44;98125.88;5030771;28;20284;-76
2022/08/02 00:34:03;;;;;;;;;;;;;;;19.30;64.07;98121.38;5015712;28;19963;-73
2022/08/02 00:36:51;;;;;;;;;;;;;;;19.49;63.43;98117.78;5040647;28;19921;-72
2022/08/02 00:39:24;;;;;;;;;;;;;;;19.33;64.24;98115.16;5026943;28;19932;-73
2022/08/02 00:42:04;;;;;;;;;;;;;;;19.16;64.65;98110.06;5048990;28;20349;-73
2022/08/02 00:44:34;;;;;;;;;;;;;;;19.27;64.32;98119.34;5034866;28;19918;-74
2022/08/02 00:47:05;;;;;;;;;;;;;;;19.18;64.85;98124.28;5034850;28;19916;-75
2022/08/02 00:49:33;;;;;;;;;;;;;;;19.44;63.70;98114.53;5034646;28;20007;-64
2022/08/02 00:52:02;;;;;;;;;;;;;;;19.00;65.30;98120.34;5042796;28;20006;-75
2022/08/02 00:54:31;;;;;;;;;;;;;;;18.89;65.67;98117.38;5038473;28;19924;-75
2022/08/02 00:56:59;;;;;;;;;;;;;;;19.14;64.76;98117.91;5048415;28;19921;-75
2022/08/02 00:59:27;;;;;;;;;;;;;;;18.95;65.36;98110.44;5041825;28;20388;-69
2022/08/02 01:01:55;;;;;;;;;;;;;;;19.20;64.38;98112.91;5029812;28;19921;-75
2022/08/02 01:04:26;;;;;;;;;;;;;;;19.11;64.95;98110.34;5032064;28;20007;-74
2022/08/02 01:06:57;;;;;;;;;;;;;;;19.27;64.58;98113.84;5048350;28;19916;-71
2022/08/02 01:09:24;;;;;;;;;;;;;;;19.35;64.07;98121.09;5046239;28;19996;-73
2022/08/02 01:11:54;;;;;;;;;;;;;;;18.88;65.48;98121.31;5053711;28;19986;-73
2022/08/02 01:14:46;;;;;;;;;;;;;;;18.89;65.67;98117.38;5033960;28;20257;-75
2022/08/02 01:17:18;;;;;;;;;;;;;;;18.56;66.63;98120.56;5021368;28;19916;-75
2022/08/02 01:19:47;;;;;;;;;;;;;;;18.71;66.01;98119.75;5029886;28;19928;-75
2022/08/02 01:22:30;;;;;;;;;;;;;;;18.66;66.28;98120.00;5034735;28;19952;-75
2022/08/02 01:25:26;;;;;;;;;;;;;;;18.46;67.02;98118.38;5046381;28;19931;-74
2022/08/02 01:28:22;;;;;;;;;;;;;;;18.75;65.89;98117.06;5040194;28;19923;-76
2022/08/02 01:30:54;;;;;;;;;;;;;;;18.84;65.49;98120.41;5033187;28;19924;-75
2022/08/02 01:33:25;;;;;;;;;;;;;;;18.62;65.92;98112.81;5025138;28;19960;-77
2022/08/02 01:35:53;;;;;;;;;;;;;;;18.38;66.84;98108.38;5028058;28;19920;-69
2022/08/02 01:38:22;;;;;;;;;;;;;;;18.16;67.58;98118.03;5042734;28;20066;-75
2022/08/02 01:40:50;;;;;;;;;;;;;;;17.97;68.10;98116.03;5045677;28;19923;-72
2022/08/02 01:43:19;;;;;;;;;;;;;;;18.01;67.98;98109.47;5021563;28;19939;-75
2022/08/02 01:45:47;;;;;;;;;;;;;;;18.35;66.73;98120.06;5036074;28;19917;-76
2022/08/02 01:48:19;;;;;;;;;;;;;;;18.39;66.68;98115.47;5046393;28;19970;-75
2022/08/02 01:50:50;;;;;;;;;;;;;;;18.39;66.48;98126.47;5031460;28;19924;-74
2022/08/02 01:53:18;;;;;;;;;;;;;;;18.40;66.40;98134.34;5047614;28;20317;-75
2022/08/02 01:55:48;;;;;;;;;;;;;;;18.34;66.72;98135.78;5040583;28;19917;-75
2022/08/02 01:58:27;;;;;;;;;;;;;;;18.44;66.49;98131.69;5042121;28;19956;-74
2022/08/02 02:01:22;;;;;;;;;;;;;;;18.23;67.29;98132.78;5030076;28;19920;-75
2022/08/02 02:03:50;;;;;;;;;;;;;;;18.17;67.64;98125.97;5031265;28;19924;-75
2022/08/02 02:09:10;;;;;;;;;;;;;;;18.54;66.60;98131.16;5042581;28;19963;-75
2022/08/02 02:11:38;;;;;;;;;;;;;;;18.65;65.96;98134.94;5042933;28;19917;-75
2022/08/02 02:17:20;;;;;;;;;;;;;;;18.53;66.27;98146.03;5026516;28;19917;-74
2022/08/02 02:20:08;;;;;;;;;;;;;;;18.56;66.03;98137.06;5032181;28;19917;-75
2022/08/02 02:22:36;;;;;;;;;;;;;;;18.19;67.18;98142.88;5032346;28;19940;-75
2022/08/02 02:25:08;;;;;;;;;;;;;;;18.35;66.58;98136.56;5049502;28;20033;-75
2022/08/02 02:27:42;;;;;;;;;;;;;;;18.12;67.30;98139.97;5040748;28;19921;-74
2022/08/02 02:30:12;;;;;;;;;;;;;;;17.97;68.00;98132.53;5043727;28;19921;-71
2022/08/02 02:35:59;;;;;;;;;;;;;;;17.88;68.33;98145.63;5027748;28;20252;-75
2022/08/02 02:38:27;;;;;;;;;;;;;;;17.95;68.06;98143.06;5027572;28;20012;-75
2022/08/02 02:40:55;;;;;;;;;;;;;;;18.13;67.33;98129.78;5023442;28;19944;-73
2022/08/02 02:43:23;;;;;;;;;;;;;;;18.20;67.05;98127.97;5014526;28;20399;-75
2022/08/02 02:45:52;;;;;;;;;;;;;;;17.75;68.50;98131.97;5015638;28;20353;-75
2022/08/02 02:48:20;;;;;;;;;;;;;;;17.83;68.23;98132.16;5039807;28;20353;-70
2022/08/02 02:50:48;;;;;;;;;;;;;;;17.93;67.99;98137.13;5035911;28;20016;-74
2022/08/02 02:53:17;;;;;;;;;;;;;;;17.94;67.89;98141.47;5013914;28;19960;-74
2022/08/02 02:55:44;;;;;;;;;;;;;;;17.61;69.03;98148.03;5037389;28;19964;-73
2022/08/02 02:58:28;;;;;;;;;;;;;;;17.39;69.86;98135.69;5024378;28;19971;-70
2022/08/02 03:03:45;;;;;;;;;;;;;;;17.58;69.19;98136.94;5017319;28;19917;-74
2022/08/02 03:06:13;;;;;;;;;;;;;;;17.84;68.17;98136.47;5026018;28;20339;-74
2022/08/02 03:08:42;;;;;;;;;;;;;;;17.87;67.85;98133.03;5016970;28;19940;-74
2022/08/02 03:11:10;;;;;;;;;;;;;;;17.77;68.28;98134.34;5029512;28;20640;-74
2022/08/02 03:13:40;;;;;;;;;;;;;;;17.87;67.54;98131.09;5013700;28;19921;-74
2022/08/02 03:16:09;;;;;;;;;;;;;;;17.90;67.44;98126.84;5017458;28;20016;-74
2022/08/02 03:18:38;;;;;;;;;;;;;;;17.91;67.15;98139.44;5013015;28;19924;-75
2022/08/02 03:21:12;;;;;;;;;;;;;;;17.85;67.04;98136.16;5024714;28;20034;-74
2022/08/02 03:23:43;;;;;;;;;;;;;;;17.88;66.88;98145.63;5023003;28;19922;-67
2022/08/02 03:26:11;;;;;;;;;;;;;;;17.55;67.92;98144.75;5014330;28;19917;-74
2022/08/02 03:28:38;;;;;;;;;;;;;;;17.44;68.35;98142.88;5029771;28;19917;-74
2022/08/02 03:31:06;;;;;;;;;;;;;;;17.61;67.82;98144.50;5019810;28;19929;-75
2022/08/02 03:33:36;;;;;;;;;;;;;;;17.61;67.69;98147.25;5034897;28;20387;-75
2022/08/02 03:36:05;;;;;;;;;;;;;;;17.76;67.36;98150.06;5043451;28;19924;-72
2022/08/02 03:38:33;;;;;;;;;;;;;;;17.65;67.61;98151.69;5032195;28;19968;-75
2022/08/02 03:41:02;;;;;;;;;;;;;;;17.69;67.27;98149.84;5014858;28;19917;-75
2022/08/02 03:43:30;;;;;;;;;;;;;;;17.72;67.38;98151.91;5018426;28;19917;-75
2022/08/02 03:46:00;;;;;;;;;;;;;;;17.56;67.98;98148.28;5030513;28;20354;-74
2022/08/02 03:48:31;;;;;;;;;;;;;;;17.73;67.25;98145.25;5024801;28;20011;-74
2022/08/02 03:51:05;;;;;;;;;;;;;;;17.77;67.11;98143.41;5036363;28;19916;-74
2022/08/02 03:53:33;;;;;;;;;;;;;;;17.45;67.86;98144.47;5028060;28;20032;-74
2022/08/02 03:56:01;;;;;;;;;;;;;;;17.33;68.28;98141.78;5015855;28;19920;-74
2022/08/02 03:58:29;;;;;;;;;;;;;;;17.34;68.23;98143.38;5015396;28;20316;-74
2022/08/02 04:00:57;;;;;;;;;;;;;;;17.27;68.54;98144.78;5012110;28;19948;-74
2022/08/02 04:03:25;;;;;;;;;;;;;;;17.45;67.98;98141.72;5014306;28;19921;-74
2022/08/02 04:05:56;;;;;;;;;;;;;;;17.47;67.54;98148.47;5020162;28;20011;-74
2022/08/02 04:08:31;;;;;;;;;;;;;;;17.46;67.52;98155.09;5022607;28;20089;-74
2022/08/02 04:13:50;;;;;;;;;;;;;;;17.48;67.58;98169.28;4953299;28;19918;-72
2022/08/02 04:16:24;;;;;;;;;;;;;;;17.20;68.41;98179.44;4966438;28;19945;-67
2022/08/02 04:18:54;;;;;;;;;;;;;;;17.35;67.95;98183.41;4974106;28;19921;-74
2022/08/02 04:21:24;;;;;;;;;;;;;;;17.24;68.26;98186.66;4950173;28;19953;-74
2022/08/02 04:23:53;;;;;;;;;;;;;;;17.55;67.17;98183.22;4966125;28;20020;-71
2022/08/02 04:26:21;;;;;;;;;;;;;;;17.48;67.46;98187.72;4969088;28;20104;-74
2022/08/02 04:28:55;;;;;;;;;;;;;;;17.64;66.86;98191.31;4967909;28;19917;-73
2022/08/02 04:31:22;;;;;;;;;;;;;;;17.55;67.26;98193.41;5013283;28;19921;-70
2022/08/02 04:33:51;;;;;;;;;;;;;;;17.55;67.17;98194.19;5018906;28;19938;-73
2022/08/02 04:36:18;;;;;;;;;;;;;;;17.58;67.17;98200.13;5051890;28;19917;-73
2022/08/02 04:38:59;;;;;;;;;;;;;;;17.61;67.78;98194.75;5037193;28;19978;-64
2022/08/02 04:41:37;;;;;;;;;;;;;;;17.65;71.17;98201.16;5042161;28;19917;-69
2022/08/02 04:44:07;;;;;;;;;;;;;;;17.54;68.98;98202.81;5044038;28;20284;-68
2022/08/02 04:46:36;;;;;;;;;;;;;;;17.59;70.74;98202.56;5027794;28;19921;-73
2022/08/02 04:49:03;;;;;;;;;;;;;;;17.61;69.52;98207.69;5027189;28;20549;-72
2022/08/02 04:51:35;;;;;;;;;;;;;;;17.78;71.28;98216.44;5043837;28;20345;-71
2022/08/02 04:54:07;;;;;;;;;;;;;;;17.99;68.89;98212.66;5036296;28;20015;-68
2022/08/02 04:56:36;;;;;;;;;;;;;;;18.19;66.57;98210.84;5049797;28;19917;-71
2022/08/02 04:59:11;;;;;;;;;;;;;;;17.81;68.09;98206.72;5027652;28;19927;-69
2022/08/02 05:01:41;;;;;;;;;;;;;;;17.72;69.58;98206.84;5047539;28;19921;-58
2022/08/02 05:04:09;;;;;;;;;;;;;;;17.74;70.50;98201.81;5048722;28;19924;-71
2022/08/02 05:06:36;;;;;;;;;;;;;;;17.70;69.02;98200.09;5053678;28;19917;-71
2022/08/02 05:09:06;;;;;;;;;;;;;;;17.80;70.06;98199.63;5056758;28;19924;-72
2022/08/02 05:11:35;;;;;;;;;;;;;;;17.85;70.05;98202.13;5056391;28;19974;-71
2022/08/02 05:14:04;;;;;;;;;;;;;;;17.95;69.69;98206.28;5041230;28;20305;-71
2022/08/02 05:16:35;;;;;;;;;;;;;;;17.95;67.20;98198.03;5056937;28;19929;-70
2022/08/02 05:19:03;;;;;;;;;;;;;;;18.00;67.59;98204.09;5044592;28;19925;-71
2022/08/02 05:21:32;;;;;;;;;;;;;;;18.15;68.65;98204.44;5031498;28;20341;-71
2022/08/02 05:24:00;;;;;;;;;;;;;;;18.41;67.43;98204.72;5048357;28;19917;-71
2022/08/02 05:26:32;;;;;;;;;;;;;;;18.38;67.66;98212.91;5037705;28;19916;-70
2022/08/02 05:29:00;;;;;;;;;;;;;;;18.06;65.52;98210.13;5045711;28;19917;-72
2022/08/02 05:31:27;;;;;;;;;;;;;;;17.83;66.30;98206.34;5051246;28;19986;-72
2022/08/02 05:33:55;;;;;;;;;;;;;;;17.80;66.39;98200.41;5054228;28;20404;-72
2022/08/02 05:36:23;;;;;;;;;;;;;;;17.99;66.46;98201.69;5028881;28;20016;-72
2022/08/02 05:38:55;;;;;;;;;;;;;;;17.90;66.52;98207.34;5045241;28;19925;-72
2022/08/02 05:41:29;;;;;;;;;;;;;;;18.02;65.78;98206.47;5025210;28;20373;-72
2022/08/02 05:43:58;;;;;;;;;;;;;;;18.20;65.72;98202.22;5034311;28;19948;-72
2022/08/02 05:46:26;;;;;;;;;;;;;;;18.12;65.62;98211.47;5035707;28;19917;-68
2022/08/02 05:48:54;;;;;;;;;;;;;;;18.20;65.72;98213.22;5046950;28;20011;-72
2022/08/02 05:51:23;;;;;;;;;;;;;;;18.57;65.60;98205.50;5040748;28;20273;-68
2022/08/02 05:53:51;;;;;;;;;;;;;;;18.57;64.88;98210.19;5036681;28;20327;-71
2022/08/02 05:56:20;;;;;;;;;;;;;;;18.77;65.89;98211.91;5038142;28;19917;-71
2022/08/02 06:01:46;;;;;;;;;;;;;;;18.95;65.34;98212.28;5051651;28;19921;-71
2022/08/02 06:04:17;;;;;;;;;;;;;;;18.70;64.30;98211.75;5007829;28;19917;-71
2022/08/02 06:06:48;;;;;;;;;;;;;;;18.91;64.87;98203.19;5030347;28;19920;-71
2022/08/02 06:09:17;;;;;;;;;;;;;;;18.97;63.99;98206.44;5045219;28;19963;-59
2022/08/02 06:11:51;;;;;;;;;;;;;;;18.92;63.99;98203.97;5048088;28;19917;-64
2022/08/02 06:14:54;;;;;;;;;;;;;;;19.07;64.37;98212.19;5028309;28;19917;-71
2022/08/02 06:17:26;;;;;;;;;;;;;;;19.32;63.50;98212.72;5043467;28;19916;-71
2022/08/02 06:19:56;;;;;;;;;;;;;;;19.35;63.71;98216.72;5037211;28;20035;-71
2022/08/02 06:22:27;;;;;;;6.47;3.22;;;;;;;19.73;62.03;98221.44;5048545;28;20469;-68
2022/08/02 06:25:09;;;;;;;;;;;;;;;19.69;62.43;98222.53;5034314;28;20257;-71
2022/08/02 06:27:58;;;;;;;;;;;;;;;19.91;61.23;98232.00;5050270;28;20383;-70
2022/08/02 06:30:25;;;;;;;;;;;;;;;19.61;61.91;98216.88;5031978;28;19921;-70
2022/08/02 06:32:55;;;;;;;;;;;;;;;19.50;62.29;98229.63;5044593;28;19944;-71
2022/08/02 06:35:25;;;;;;;;;;;;;;;19.58;61.91;98222.28;5043277;28;19917;-67
2022/08/02 06:38:19;;;;;;;;;;;;;;;19.66;61.37;98215.81;5048112;28;19963;-71
2022/08/02 06:40:48;;;;;;;;;;;;;;;19.75;61.56;98224.63;5027824;28;19924;-71
2022/08/02 06:43:18;;;;;;;;;;;;;;;19.59;61.76;98223.91;5049508;28;20493;-69
2022/08/02 06:45:46;;;;;;;;;;;;;;;19.60;61.77;98231.00;5030384;28;20000;-71
2022/08/02 06:48:15;;;;;;;;;;;;;;;19.72;61.96;98232.84;5048879;28;19916;-71
2022/08/02 06:50:43;;;;;;;;;;;;;;;19.81;61.67;98227.88;5042538;28;20452;-70
2022/08/02 06:53:12;;;;;;;;;;;;;;;20.17;60.47;98229.34;5045868;28;19956;-70
2022/08/02 06:55:40;;;;;;;;;;;;;;;20.23;60.75;98227.88;5046151;28;19940;-67
2022/08/02 06:58:11;;;;;;;;;;;;;;;20.11;60.42;98230.81;5054592;28;19956;-71
2022/08/02 07:00:39;;;;;;;;;;;;;;;20.11;60.84;98230.81;5040661;28;19920;-71
2022/08/02 07:03:10;;;;;;;;;;;;;;;20.40;59.79;98232.94;5045960;28;20021;-71
2022/08/02 07:05:39;;;;;;;;;;;;;;;20.45;60.49;98236.53;5029886;28;20261;-71
2022/08/02 07:08:08;;;;;;;9.25;4.03;;;;;;;20.76;59.06;98236.28;5045317;28;20423;-59
2022/08/02 07:11:03;;;;;;;7.82;3.63;;;;;;;20.74;58.66;98235.88;5027354;28;21159;-70
2022/08/02 07:13:32;;;;;;;8.55;3.63;;;;;;;20.80;58.22;98233.59;5049679;28;20471;-69
2022/08/02 07:16:07;;;;;;;7.20;4.13;;;;;;;20.62;58.83;98227.78;5050243;28;20881;-65
2022/08/02 07:18:37;;;;;;;11.07;3.75;;;;;;;20.98;58.55;98223.59;5047688;28;20904;-70
2022/08/02 07:21:07;;;;;;;7.88;3.72;;;;;;;21.30;57.23;98213.00;5029094;28;20406;-68
2022/08/02 07:24:00;;;;;;;8.15;3.75;;;;;;;21.11;57.58;98210.38;5046991;28;20759;-71
2022/08/02 07:26:30;;;;;;;8.60;4.25;;;;;;;20.99;58.25;98222.44;5047661;28;20417;-71
2022/08/02 07:28:58;;;;;;;7.00;3.65;;;;;;;21.09;58.40;98212.69;5055735;28;20507;-70
2022/08/02 07:31:26;;;;;;;8.02;3.92;;;;;;;21.13;57.74;98210.78;5053796;28;20436;-69
2022/08/02 07:33:54;;;;;;;6.97;3.90;;;;;;;21.26;57.87;98211.38;5026882;28;20423;-66
2022/08/02 07:36:24;;;;;;;8.30;4.07;;;;;;;21.06;57.51;98213.47;5051637;28;20432;-71
2022/08/02 07:38:52;;;;;;;8.00;4.13;;;;;;;21.20;57.30;98208.13;5048787;28;20929;-62
2022/08/02 07:41:20;;;;;;;8.65;4.10;;;;;;;21.44;57.07;98207.69;5045928;28;20813;-71
2022/08/02 07:43:54;;;;;;;8.25;4.28;;;;;;;21.42;56.86;98203.72;5048645;28;20508;-71
2022/08/02 07:46:22;;;;;;;6.55;3.70;;;;;;;21.61;56.42;98205.50;5041903;28;20402;-70
2022/08/02 07:48:52;;;;;;;6.43;3.70;;;;;;;21.73;57.04;98207.22;5042775;28;20824;-69
2022/08/02 07:51:20;;;;;;;;;;;;;;;21.78;56.35;98202.13;5045912;28;20421;-72
2022/08/02 07:53:51;;;;;;;;;;;;;;;22.03;55.55;98207.16;5053744;28;20019;-69
2022/08/02 07:56:29;;;;;;;;;;;;;;;22.08;54.92;98212.34;5034743;28;20278;-72
2022/08/02 07:59:22;;;;;;;;;;;;;;;22.16;55.31;98206.53;5028892;28;19927;-71
2022/08/02 08:01:50;;;;;;;;;;;;;;;22.22;54.72;98218.03;5043705;28;19939;-72
2022/08/02 08:04:21;;;;;;;;;;;;;;;22.38;54.19;98209.50;5042375;28;19921;-71
2022/08/02 08:06:51;;;;;;;;;;;;;;;22.25;54.90;98206.19;5040665;28;20399;-71
2022/08/02 08:09:20;;;;;;;;;;;;;;;22.51;53.93;98207.22;5056392;28;19924;-71
2022/08/02 08:11:48;;;;;;;;;;;;;;;22.46;53.63;98213.91;5054537;28;19917;-71
2022/08/02 08:14:16;;;;;;;;;;;;;;;22.62;53.12;98208.09;5024839;28;19917;-71
2022/08/02 08:17:08;;;;;;;;;;;;;;;22.74;52.58;98210.56;5033077;28;20451;-69
2022/08/02 08:19:38;;;;;;;;;;;;;;;22.91;52.90;98212.69;5048161;28;19935;-69
2022/08/02 08:22:18;;;;;;;;;;;;;;;23.08;51.83;98218.75;5047726;28;20389;-69
2022/08/02 08:25:12;;;;;;;;;;;;;;;23.05;51.98;98216.72;5031815;28;19928;-71
2022/08/02 08:27:50;;;;;;;;;;;;;;;22.81;53.29;98218.94;5020213;28;20247;-71
2022/08/02 08:30:19;;;;;;;;;;;;;;;22.87;52.67;98219.38;5047463;28;20373;-69
2022/08/02 08:32:47;;;;;;;;;;;;;;;22.90;52.23;98221.38;5046077;28;20117;-69
2022/08/02 08:35:15;;;;;;;;;;;;;;;22.72;52.32;98224.00;5048848;28;19968;-69
2022/08/02 08:38:08;;;;;;;;;;;;;;;22.73;52.64;98233.91;5049208;28;19923;-67
2022/08/02 08:40:38;;;;;;;5.60;3.08;;;;;;;22.55;52.85;98230.19;5031338;28;20418;-67
2022/08/02 08:43:06;;;;;;;6.03;3.20;;;;;;;22.93;51.69;98224.19;5027333;28;20413;-69
2022/08/02 08:45:34;;;;;;;;;;;;;;;22.90;51.71;98224.16;5028489;28;20411;-69
2022/08/02 08:48:11;;;;;;;;;;;;;;;23.02;51.97;98225.84;5033978;28;19944;-69
2022/08/02 08:50:42;;;;;;;;;;;;;;;23.21;51.44;98212.47;5030492;28;19916;-54
2022/08/02 08:53:09;;;;;;;;;;;;;;;23.15;52.44;98214.03;5045452;28;19975;-69
2022/08/02 08:55:40;;;;;;;;;;;;;;;23.41;51.61;98220.50;5049790;28;19916;-68
2022/08/02 08:58:08;;;;;;;;;;;;;;;23.21;52.48;98211.69;5049932;28;19956;-67
2022/08/02 09:00:37;;;;;;;;;;;;;;;23.18;53.01;98218.00;5044101;28;19956;-69
2022/08/02 09:03:05;;;;;;;;;;;;;;;23.15;52.28;98233.41;5037593;28;19925;-69
2022/08/02 09:05:36;;;;;;;;;;;;;;;23.47;51.62;98225.28;5030161;28;19921;-69
2022/08/02 09:08:05;;;;;;;;;;;;;;;23.46;51.91;98223.69;5049923;28;19935;-69
2022/08/02 09:10:33;;;;;;;;;;;;;;;23.74;50.83;98227.78;5052383;28;19927;-68
2022/08/02 09:13:15;;;;;;;;;;;;;;;24.00;49.55;98230.25;5047892;28;20467;-69
2022/08/02 09:16:05;;;;;;;;;;;;;;;24.04;50.37;98228.28;5027003;28;19929;-60
2022/08/02 09:18:42;;;;;;;;;;;;;;;24.08;49.90;98235.84;5045039;28;19917;-66
2022/08/02 09:24:03;;;;;;;6.80;3.25;;;;;;;23.95;49.69;98229.84;5036543;28;20844;-69
2022/08/02 09:26:30;;;;;;;7.73;2.93;;;;;;;23.95;49.68;98222.31;5044474;28;20420;-69
2022/08/02 09:29:03;;;;;;;4.97;2.72;;;;;;;24.45;48.61;98232.72;5027249;28;20411;-69
2022/08/02 09:31:34;;;;;;;5.63;3.10;;;;;;;24.18;48.08;98221.97;5025781;28;20405;-68
2022/08/02 09:34:02;;;;;;;6.32;3.08;;;;;;;24.28;47.65;98223.94;5043307;28;20424;-68
2022/08/02 09:36:41;;;;;;;5.13;2.92;;;;;;;24.23;47.70;98221.56;5017596;28;20472;-67
2022/08/02 09:39:12;;;;;;;5.57;2.67;;;;;;;24.36;47.75;98232.34;5031056;28;20453;-69
2022/08/02 09:41:42;;;;;;;5.97;2.92;;;;;;;24.37;47.09;98218.03;5009435;28;20421;-68
2022/08/02 09:44:14;;;;;;;5.55;2.83;;;;;;;24.18;46.61;98224.75;5022086;28;20403;-67
2022/08/02 09:46:46;;;;;;;5.43;2.50;;;;;;;24.17;46.88;98217.59;5026376;28;20794;-69
2022/08/02 09:49:16;;;;;;;4.20;2.40;;;;;;;24.51;45.18;98220.84;5047749;28;20899;-68
2022/08/02 09:51:50;;;;;;;4.90;2.33;;;;;;;24.48;46.00;98209.72;5042019;28;20405;-70
2022/08/02 09:54:20;;;;;;;4.47;2.35;;;;;;;24.32;44.97;98212.84;5040104;28;20417;-69
2022/08/02 09:56:53;;;;;;;4.20;2.15;;;;;;;24.74;43.93;98205.75;5046623;28;20432;-66
2022/08/02 09:59:26;;;;;;;4.10;2.15;;;;;;;24.97;42.46;98197.75;5047752;28;20427;-69
2022/08/02 10:01:59;;;;;;;5.38;2.50;;;;;;;25.19;42.42;98192.19;5045460;28;20870;-69
2022/08/02 10:05:10;;;;;;;5.55;2.40;;;;;;;25.02;42.85;98197.34;5047377;28;20482;-69
2022/08/02 10:07:41;;;;;;;4.95;2.40;;;;;;;24.94;42.37;98190.25;5047825;28;20530;-66
2022/08/02 10:10:10;;;;;;;4.68;2.03;;;;;;;25.18;42.65;98196.16;5049037;28;20440;-69
2022/08/02 10:12:38;;;;;;;5.97;2.15;;;;;;;25.29;42.27;98188.56;5047356;28;20413;-69
2022/08/02 10:15:09;;;;;;;5.13;2.20;;;;;;;25.22;43.56;98189.41;5029626;28;20734;-67
2022/08/02 10:17:37;;;;;;;6.00;2.30;;;;;;;25.22;43.34;98177.50;5022458;28;20426;-69
2022/08/02 10:20:06;;;;;;;4.05;2.30;;;;;;;25.37;43.12;98176.25;5037876;28;20421;-69
2022/08/02 10:22:39;;;;;;;3.95;2.20;;;;;;;25.30;43.30;98184.59;5045797;28;20460;-69
2022/08/02 10:25:08;;;;;;;4.00;2.10;;;;;;;25.09;41.61;98182.69;5046997;28;20494;-68
2022/08/02 10:27:37;;;;;;;5.00;2.30;;;;;;;25.12;41.46;98181.09;5022505;28;20445;-70
2022/08/02 10:30:27;;;;;;;4.05;2.20;;;;;;;25.35;41.40;98175.84;5042713;28;20459;-69
2022/08/02 10:32:57;;;;;;;3.90;2.08;;;;;;;25.50;41.77;98179.34;5047471;28;20532;-70
2022/08/02 10:35:29;;;;;;;4.10;2.10;;;;;;;25.64;41.85;98181.28;5048978;28;20516;-71
2022/08/02 10:38:02;;;;;;;6.78;2.00;;;;;;;25.63;42.54;98188.84;5045407;28;20413;-70
2022/08/02 10:40:44;;;;;;;16.90;2.75;;;;;;;25.67;41.67;98183.25;5016774;28;20959;-66
2022/08/02 10:43:13;;;;;;;5.65;2.20;;;;;;;25.77;41.22;98176.88;5016296;28;20474;-56
2022/08/02 10:45:47;;;;;;;8.05;2.58;;;;;;;25.87;41.52;98178.81;5035075;28;20449;-71
2022/08/02 10:48:17;;;;;;;4.88;2.33;;;;;;;25.88;41.77;98172.03;5023508;28;20494;-69
2022/08/02 10:50:53;;;;;;;6.03;2.20;;;;;;;25.69;41.12;98172.53;5046166;28;20408;-65
2022/08/02 10:53:28;;;;;;;3.85;2.00;;;;;;;25.82;41.36;98168.88;5032342;28;20413;-68
2022/08/02 10:55:59;;;;;;;6.65;2.03;;;;;;;25.70;41.04;98160.97;5048179;28;20524;-71
2022/08/02 10:58:31;;;;;;;4.40;2.10;;;;;;;25.77;40.92;98165.72;5032147;28;20876;-70
2022/08/02 11:01:04;;;;;;;4.07;2.03;;;;;;;25.71;40.32;98159.78;5031348;28;20413;-67
2022/08/02 11:03:44;;;;;;;4.45;1.75;;;;;;;25.74;39.99;98153.44;5052131;28;20529;-63
2022/08/02 11:06:14;;;;;;;4.17;1.83;;;;;;;25.88;39.50;98155.31;5033788;28;20405;-61
2022/08/02 11:09:27;;;;;;;4.10;1.88;;;;;;;25.99;40.09;98153.25;5045058;28;20452;-71
2022/08/02 11:12:02;;;;;;;10.48;2.20;;;;;;;26.16;38.98;98156.34;5044136;28;20397;-69
2022/08/02 11:14:59;;;;;;;3.67;2.00;;;;;;;26.02;39.32;98144.09;5049196;28;20448;-69
2022/08/02 11:17:28;;;;;;;3.88;2.05;;;;;;;26.25;39.01;98145.53;5029429;28;22435;-61
2022/08/02 11:20:19;;;;;;;4.67;2.00;;;;;;;26.33;39.10;98135.91;5054383;28;20421;-71
2022/08/02 11:22:49;;;;;;;4.68;2.10;;;;;;;26.41;39.17;98136.63;5039208;28;20647;-68
2022/08/02 11:25:33;;;;;;;3.97;2.30;;;;;;;26.45;38.36;98121.50;5047578;28;20421;-72
2022/08/02 11:28:22;;;;;;;14.55;4.85;;;;;;;26.50;39.81;98135.00;5056316;28;20462;-65
2022/08/02 11:31:00;;;;;;;7.00;2.75;;;;;;;26.44;38.50;98139.44;5047765;28;20429;-69
2022/08/02 11:33:36;;;;;;;4.93;2.00;;;;;;;26.20;38.78;98132.03;5030606;28;20420;-67
2022/08/02 11:36:06;;;;;;;8.05;3.72;;;;;;;26.39;40.09;98134.28;5037866;28;20885;-69
2022/08/02 11:38:35;;;;;;;6.00;2.63;;;;;;;26.42;40.03;98130.72;5047031;28;20411;-72
2022/08/02 11:41:04;;;;;;;5.20;2.87;;;;;;;26.47;40.19;98124.66;5053357;28;20850;-71
2022/08/02 11:43:37;;;;;;;5.68;2.75;;;;;;;26.56;40.60;98124.97;5053308;28;20484;-71
2022/08/02 11:46:12;;;;;;;6.80;2.35;;;;;;;26.58;40.15;98125.38;5054294;28;20884;-71
2022/08/02 11:48:44;;;;;;;5.25;2.60;;;;;;;26.69;40.36;98125.28;5032047;28;20458;-68
2022/08/02 11:51:14;;;;;;;4.68;2.22;;;;;;;26.75;40.27;98128.41;5053361;28;20423;-66
2022/08/02 11:53:48;;;;;;;4.20;2.35;;;;;;;26.60;38.18;98122.97;5048352;28;20470;-64
2022/08/02 11:56:17;;;;;;;3.70;2.17;;;;;;;26.65;38.75;98113.38;5048502;28;20933;-67
2022/08/02 11:59:10;;;;;;;3.53;2.10;;;;;;;26.58;39.40;98107.84;5050467;28;20883;-65
2022/08/02 12:01:41;;;;;;;4.53;2.20;;;;;;;27.03;37.73;98108.56;5032121;28;20442;-67
2022/08/02 12:04:19;;;;;;;4.07;2.00;;;;;;;27.07;37.80;98106.56;5049290;28;20417;-60
2022/08/02 12:06:57;;;;;;;6.40;2.30;;;;;;;27.15;38.65;98102.47;4998325;28;20407;-70
2022/08/02 12:09:27;;;;;;;4.38;2.38;;;;;;;27.05;37.77;98110.94;5014689;28;20477;-70
2022/08/02 12:11:56;;;;;;;3.88;2.05;;;;;;;27.05;37.21;98106.13;5040047;28;20488;-70
2022/08/02 12:20:18;;;;;;;3.83;2.13;;;;;;;26.77;37.71;98092.53;5017437;28;20876;-70
2022/08/02 12:22:47;;;;;;;3.60;1.93;;;;;;;26.84;37.80;98086.88;5043682;28;20413;-59
2022/08/02 12:25:17;;;;;;;4.50;2.00;;;;;;;27.01;37.83;98088.69;5040619;28;20415;-69
2022/08/02 12:28:25;;;;;;;4.10;2.20;;;;;;;27.05;38.40;98092.19;5041057;28;20500;-69
2022/08/02 12:30:55;;;;;;;4.00;1.80;;;;;;;27.00;38.88;98083.50;5019837;28;20405;-69
2022/08/02 12:33:23;;;;;;;6.33;2.10;;;;;;;26.88;39.16;98082.06;5049932;28;20422;-69
2022/08/02 12:35:53;;;;;;;4.97;2.00;;;;;;;26.72;39.51;98084.63;5047634;28;20423;-66
2022/08/02 12:38:22;;;;;;;6.60;2.03;;;;;;;26.77;38.45;98081.38;5036137;28;20682;-67
2022/08/02 12:40:53;;;;;;;6.25;2.33;;;;;;;26.78;39.66;98083.75;5047175;28;20435;-68
2022/08/02 12:43:24;;;;;;;4.90;1.90;;;;;;;26.76;39.62;98082.59;5046385;28;20572;-69
2022/08/02 12:45:54;;;;;;;5.18;1.80;;;;;;;26.81;39.48;98079.34;5047585;28;20906;-64
2022/08/02 12:48:33;;;;;;;4.03;1.90;;;;;;;26.69;39.32;98080.69;5049552;28;20407;-70
2022/08/02 12:51:32;;;;;;;4.90;2.07;;;;;;;26.83;39.38;98076.94;5048122;28;20468;-69
2022/08/02 12:54:22;;;;;;;2.75;1.63;;;;;;;26.92;34.05;98071.66;5047027;28;20878;-69
2022/08/02 12:57:11;;;;;;;5.53;1.88;;;;;;;27.07;35.47;98070.31;5046462;28;20892;-69
2022/08/02 12:59:41;;;;;;;2.97;1.70;;;;;;;27.07;37.42;98075.09;5046188;28;20417;-55
2022/08/02 13:02:11;;;;;;;3.50;1.63;;;;;;;27.05;37.38;98075.47;5022895;28;20931;-69
2022/08/02 13:04:46;;;;;;;3.85;1.75;;;;;;;26.94;37.94;98079.59;5045458;28;20892;-60
2022/08/02 13:07:19;;;;;;;11.50;2.50;;;;;;;27.07;38.54;98075.88;5045301;28;20413;-69
2022/08/02 13:09:48;;;;;;;3.53;2.00;;;;;;;26.89;38.85;98072.47;5029121;28;20825;-69
2022/08/02 13:12:17;;;;;;;3.58;1.90;;;;;;;26.89;38.92;98072.47;5024452;28;20489;-69
2022/08/02 13:14:47;;;;;;;3.90;1.83;;;;;;;26.97;37.63;98071.19;5042295;28;20402;-69